createdAt,value
2023-05-18T00:04:16.312Z,3.20
2023-05-18T00:08:14.287Z,3.70
2023-05-18T00:12:14.501Z,3.40
2023-05-18T00:16:14.836Z,3.40
2023-05-18T00:20:14.430Z,3.40
2023-05-18T00:24:14.805Z,3.00
2023-05-18T00:28:14.496Z,3.20
2023-05-18T00:32:14.386Z,3.10
2023-05-18T00:36:14.695Z,3.60
2023-05-18T00:40:14.313Z,3.60
2023-05-18T00:44:14.510Z,3.20
2023-05-18T00:48:14.501Z,3.50
2023-05-18T00:52:15.225Z,3.00
2023-05-18T00:56:14.608Z,3.00
2023-05-18T01:00:14.944Z,3.10
2023-05-18T01:04:14.699Z,3.20
2023-05-18T01:08:14.928Z,3.60
2023-05-18T01:12:20.231Z,3.50
2023-05-18T01:20:21.450Z,3.40
2023-05-18T01:24:24.982Z,3.10
2023-05-18T01:28:18.834Z,4.00
2023-05-18T01:32:17.098Z,3.90
2023-05-18T01:36:14.875Z,3.20
2023-05-18T01:40:14.569Z,3.40
2023-05-18T01:44:21.098Z,3.70
2023-05-18T01:48:19.908Z,3.30
2023-05-18T01:52:18.507Z,3.70
2023-05-18T01:56:15.431Z,3.90
2023-05-18T02:00:16.537Z,3.00
2023-05-18T02:04:14.646Z,3.40
2023-05-18T02:08:15.432Z,3.90
2023-05-18T02:12:14.700Z,3.50
2023-05-18T02:16:14.691Z,2.90
2023-05-18T02:20:17.331Z,3.70
2023-05-18T02:24:14.756Z,2.90
2023-05-18T02:28:14.640Z,3.30
2023-05-18T02:36:17.517Z,3.30
2023-05-18T02:40:15.116Z,3.50
2023-05-18T02:44:14.744Z,3.30
2023-05-18T02:48:14.781Z,3.40
2023-05-18T02:52:15.342Z,3.30
2023-05-18T02:56:16.730Z,3.20
2023-05-18T03:00:15.800Z,3.10
2023-05-18T03:04:15.919Z,3.20
2023-05-18T03:08:14.995Z,3.40
2023-05-18T03:12:15.103Z,3.10
2023-05-18T03:16:15.302Z,3.90
2023-05-18T03:20:14.688Z,3.60
2023-05-18T03:24:15.086Z,3.00
2023-05-18T03:28:14.958Z,3.40
2023-05-18T03:32:15.158Z,3.40
2023-05-18T03:36:15.662Z,3.70
2023-05-18T03:40:15.588Z,3.70
2023-05-18T03:44:15.162Z,3.40
2023-05-18T03:48:15.054Z,2.80
2023-05-18T03:52:21.161Z,3.00
2023-05-18T03:56:14.955Z,3.40
2023-05-18T04:00:15.234Z,3.40
2023-05-18T04:04:17.019Z,3.10
2023-05-18T04:08:14.935Z,3.50
2023-05-18T04:12:15.156Z,3.40
2023-05-18T04:16:15.095Z,2.80
2023-05-18T04:20:15.420Z,2.80
2023-05-18T04:24:15.380Z,3.30
2023-05-18T04:28:15.373Z,3.40
2023-05-18T04:32:17.303Z,3.10
2023-05-18T04:36:20.797Z,2.90
2023-05-18T04:40:16.073Z,3.30
2023-05-18T04:44:17.161Z,3.00
2023-05-18T04:48:16.791Z,2.90
2023-05-18T04:52:15.087Z,3.40
2023-05-18T04:56:15.598Z,3.10
2023-05-18T05:00:16.386Z,2.90
2023-05-18T05:16:15.448Z,3.10
2023-05-18T05:20:16.039Z,3.20
2023-05-18T05:24:15.251Z,3.20
2023-05-18T05:28:15.324Z,3.60
2023-05-18T05:36:15.386Z,3.30
2023-05-18T05:44:15.171Z,3.20
2023-05-18T05:48:15.318Z,3.00
2023-05-18T05:56:15.456Z,3.30
2023-05-18T06:00:16.186Z,3.10
2023-05-18T06:04:15.323Z,3.60
2023-05-18T06:08:15.978Z,3.90
2023-05-18T06:12:15.448Z,3.40
2023-05-18T06:16:15.315Z,3.80
2023-05-18T06:20:15.435Z,3.20
2023-05-18T06:24:15.510Z,3.30
2023-05-18T06:28:15.433Z,4.20
2023-05-18T06:32:15.432Z,4.10
2023-05-18T06:36:16.281Z,4.10
2023-05-18T06:40:15.566Z,4.00
2023-05-18T06:44:15.517Z,4.10
2023-05-18T06:48:15.390Z,4.30
2023-05-18T06:52:15.771Z,4.50
2023-05-18T06:56:15.671Z,4.00
2023-05-18T07:00:15.964Z,3.60
2023-05-18T07:04:16.845Z,4.80
2023-05-18T07:08:15.527Z,3.80
2023-05-18T07:12:15.729Z,4.20
2023-05-18T07:16:15.608Z,4.30
2023-05-18T07:20:15.387Z,4.20
2023-05-18T07:24:15.487Z,3.90
2023-05-18T07:28:15.619Z,4.10
2023-05-18T07:32:16.017Z,3.80
2023-05-18T07:36:15.870Z,5.10
2023-05-18T07:40:15.889Z,4.20
2023-05-18T07:44:15.529Z,4.10
2023-05-18T07:48:15.680Z,4.80
2023-05-18T07:52:15.489Z,4.50
2023-05-18T07:56:15.855Z,5.20
2023-05-18T08:00:16.373Z,4.80
2023-05-18T08:04:15.855Z,4.90
2023-05-18T08:08:15.762Z,4.90
2023-05-18T08:12:15.729Z,4.90
2023-05-18T08:16:15.784Z,4.70
2023-05-18T08:20:16.251Z,4.80
2023-05-18T08:24:15.643Z,4.50
2023-05-18T08:28:15.921Z,4.50
2023-05-18T08:32:15.688Z,4.40
2023-05-18T08:36:16.125Z,4.80
2023-05-18T08:40:15.896Z,5.30
2023-05-18T08:44:20.200Z,4.80
2023-05-18T08:48:32.827Z,4.60
2023-05-18T08:52:17.666Z,5.70
2023-05-18T08:56:15.728Z,5.50
2023-05-18T09:00:17.194Z,6.00
2023-05-18T09:04:17.265Z,5.70
2023-05-18T09:08:17.716Z,6.60
2023-05-18T09:12:17.114Z,5.60
2023-05-18T09:16:16.135Z,6.50
2023-05-18T09:20:16.485Z,6.60
2023-05-18T09:24:18.261Z,8.30
2023-05-18T09:28:25.769Z,6.60
2023-05-18T09:32:16.009Z,6.30
2023-05-18T09:36:16.725Z,7.00
2023-05-18T09:40:16.239Z,6.90
2023-05-18T09:44:16.730Z,6.60
2023-05-18T09:48:16.607Z,5.90
2023-05-18T09:52:15.954Z,5.50
2023-05-18T09:56:16.940Z,4.90
2023-05-18T10:00:18.474Z,5.80
2023-05-18T10:04:18.970Z,5.80
2023-05-18T10:08:16.582Z,5.50
2023-05-18T10:12:18.845Z,4.90
2023-05-18T10:16:16.273Z,4.90
2023-05-18T10:20:18.128Z,4.50
2023-05-18T10:28:20.074Z,4.30
2023-05-18T10:32:16.223Z,4.70
2023-05-18T10:36:16.811Z,4.40
2023-05-18T10:40:16.857Z,4.60
2023-05-18T10:44:16.163Z,4.40
2023-05-18T10:48:18.047Z,3.90
2023-05-18T10:52:16.891Z,3.70
2023-05-18T10:56:16.366Z,4.00
2023-05-18T11:00:16.584Z,4.00
2023-05-18T11:04:22.131Z,4.10
2023-05-18T11:08:25.657Z,3.80
2023-05-18T11:12:16.858Z,3.90
2023-05-18T11:16:17.852Z,3.40
2023-05-18T11:20:16.744Z,3.70
2023-05-18T11:24:20.361Z,3.40
2023-05-18T11:28:16.146Z,3.80
2023-05-18T11:32:30.461Z,2.70
2023-05-18T11:36:22.212Z,2.90
2023-05-18T11:40:35.902Z,3.60
2023-05-18T11:44:19.205Z,3.20
2023-05-18T11:48:19.476Z,3.50
2023-05-18T11:52:18.731Z,3.20
2023-05-18T11:56:16.486Z,3.20
2023-05-18T12:00:17.381Z,3.40
2023-05-18T12:04:16.470Z,2.90
2023-05-18T12:08:17.912Z,2.90
2023-05-18T12:12:18.968Z,3.00
2023-05-18T12:16:16.381Z,2.90
2023-05-18T12:20:17.997Z,2.80
2023-05-18T12:24:16.330Z,2.80
2023-05-18T12:28:17.136Z,3.40
2023-05-18T12:32:16.391Z,3.10
2023-05-18T12:36:16.469Z,3.10
2023-05-18T12:40:18.384Z,3.80
2023-05-18T12:44:16.598Z,3.30
2023-05-18T12:48:16.465Z,3.40
2023-05-18T12:52:16.480Z,3.30
2023-05-18T12:56:17.154Z,3.10
2023-05-18T13:00:18.686Z,3.40
2023-05-18T13:04:16.963Z,3.30
2023-05-18T13:08:20.681Z,2.70
2023-05-18T13:12:16.686Z,3.00
2023-05-18T13:16:16.538Z,3.00
2023-05-18T13:20:16.627Z,2.60
2023-05-18T13:24:16.782Z,3.20
2023-05-18T13:28:19.384Z,2.90
2023-05-18T13:32:16.515Z,2.80
2023-05-18T13:36:56.086Z,3.00
2023-05-18T13:40:19.879Z,3.00
2023-05-18T13:44:17.233Z,3.00
2023-05-18T13:48:16.587Z,2.70
2023-05-18T13:52:16.784Z,2.70
2023-05-18T13:56:16.652Z,2.80
2023-05-18T14:00:19.472Z,2.80
2023-05-18T14:04:16.603Z,3.00
2023-05-18T14:08:16.743Z,2.90
2023-05-18T14:12:17.368Z,2.70
2023-05-18T14:16:16.768Z,2.60
2023-05-18T14:20:17.001Z,3.10
2023-05-18T14:24:18.360Z,2.70
2023-05-18T14:28:16.623Z,2.80
2023-05-18T14:32:17.212Z,3.10
2023-05-18T14:36:16.923Z,2.60
2023-05-18T14:40:16.929Z,2.60
2023-05-18T14:44:16.903Z,3.40
2023-05-18T14:48:16.760Z,3.00
2023-05-18T14:52:16.789Z,2.70
2023-05-18T14:56:16.849Z,3.00
2023-05-18T15:00:17.016Z,2.70
2023-05-18T15:04:17.057Z,2.60
2023-05-18T15:08:27.158Z,2.90
2023-05-18T15:12:18.516Z,2.80
2023-05-18T15:16:18.773Z,2.80
2023-05-18T15:20:16.876Z,3.00
2023-05-18T15:24:16.950Z,3.00
2023-05-18T15:28:17.452Z,3.40
2023-05-18T15:32:16.867Z,3.10
2023-05-18T15:36:16.993Z,2.60
2023-05-18T15:40:16.978Z,2.90
2023-05-18T15:48:16.886Z,3.30
2023-05-18T15:52:16.935Z,3.60
2023-05-18T15:56:17.840Z,2.80
2023-05-18T16:00:21.058Z,3.10
2023-05-18T16:04:17.017Z,3.20
2023-05-18T16:08:16.941Z,2.70
2023-05-18T16:12:16.912Z,2.90
2023-05-18T16:16:18.278Z,3.00
2023-05-18T16:20:17.517Z,2.80
2023-05-18T16:24:16.923Z,3.20
2023-05-18T16:28:17.234Z,3.20
2023-05-18T16:32:17.853Z,2.90
2023-05-18T16:36:17.033Z,3.10
2023-05-18T16:40:17.306Z,3.00
2023-05-18T16:44:17.007Z,3.40
2023-05-18T16:48:17.071Z,3.10
2023-05-18T16:52:17.431Z,3.20
2023-05-18T16:56:21.058Z,3.40
2023-05-18T17:00:18.470Z,3.40
2023-05-18T17:04:17.142Z,2.90
2023-05-18T17:08:17.345Z,3.50
2023-05-18T17:12:17.310Z,5.20
2023-05-18T17:16:19.150Z,8.70
2023-05-18T17:20:17.229Z,4.50
2023-05-18T17:24:17.350Z,4.20
2023-05-18T17:28:17.857Z,3.30
2023-05-18T17:32:17.704Z,3.30
2023-05-18T17:36:17.819Z,3.60
2023-05-18T17:40:17.424Z,2.90
2023-05-18T17:44:17.474Z,2.70
2023-05-18T17:48:17.428Z,3.40
2023-05-18T17:52:17.161Z,3.10
2023-05-18T17:56:17.677Z,3.00
2023-05-18T18:00:17.709Z,3.00
2023-05-18T18:08:18.458Z,3.10
2023-05-18T18:12:17.537Z,2.90
2023-05-18T18:16:18.438Z,4.40
2023-05-18T18:20:17.270Z,3.70
2023-05-18T18:24:17.602Z,3.20
2023-05-18T18:28:17.603Z,3.80
2023-05-18T18:32:17.389Z,3.30
2023-05-18T18:36:17.385Z,3.30
2023-05-18T18:40:17.970Z,2.90
2023-05-18T18:44:17.359Z,2.90
2023-05-18T18:48:20.249Z,2.80
2023-05-18T18:52:17.370Z,3.60
2023-05-18T18:56:17.791Z,2.90
2023-05-18T19:00:19.961Z,2.80
2023-05-18T19:04:19.528Z,2.90
2023-05-18T19:08:17.453Z,2.90
2023-05-18T19:12:17.595Z,3.30
2023-05-18T19:16:17.721Z,3.00
2023-05-18T19:20:17.929Z,3.10
2023-05-18T19:24:17.558Z,2.70
2023-05-18T19:28:17.547Z,2.90
2023-05-18T19:32:17.503Z,3.20
2023-05-18T19:36:18.386Z,3.00
2023-05-18T19:41:04.253Z,3.20
2023-05-18T19:44:17.634Z,3.30
2023-05-18T19:48:17.743Z,3.10
2023-05-18T19:52:18.890Z,2.70
2023-05-18T19:56:17.658Z,3.20
2023-05-18T20:00:17.951Z,2.80
2023-05-18T20:04:22.405Z,3.50
2023-05-18T20:08:17.820Z,3.00
2023-05-18T20:12:18.563Z,3.20
2023-05-18T20:16:17.750Z,3.30
2023-05-18T20:20:19.102Z,3.00
2023-05-18T20:24:17.976Z,3.40
2023-05-18T20:28:17.627Z,3.20
2023-05-18T20:32:18.066Z,3.40
2023-05-18T20:40:18.373Z,3.20
2023-05-18T20:44:21.799Z,3.30
2023-05-18T20:48:23.966Z,3.30
2023-05-18T20:52:17.682Z,3.50
2023-05-18T20:56:17.857Z,3.50
2023-05-18T21:00:18.798Z,3.10
2023-05-18T21:08:17.762Z,3.50
2023-05-18T21:12:18.117Z,3.40
2023-05-18T21:16:18.130Z,3.80
2023-05-18T21:20:17.999Z,3.70
2023-05-18T21:24:17.934Z,3.50
2023-05-18T21:28:18.093Z,3.40
2023-05-18T21:32:17.924Z,3.70
2023-05-18T21:36:26.703Z,3.90
2023-05-18T21:40:18.192Z,3.50
2023-05-18T21:44:18.026Z,3.70
2023-05-18T21:48:17.918Z,3.30
2023-05-18T21:53:53.158Z,4.10
2023-05-18T21:56:20.258Z,4.10
2023-05-18T22:00:18.236Z,3.50
2023-05-18T22:04:18.035Z,3.70
2023-05-18T22:08:19.143Z,3.20
2023-05-18T22:12:18.197Z,3.30
2023-05-18T22:16:18.043Z,3.40
2023-05-18T22:20:18.758Z,3.50
2023-05-18T22:24:18.285Z,3.90
2023-05-18T22:28:20.521Z,3.70
2023-05-18T22:32:18.236Z,3.60
2023-05-18T22:36:20.474Z,4.00
2023-05-18T22:40:18.036Z,3.60
2023-05-18T22:44:18.060Z,3.90
2023-05-18T22:48:18.194Z,4.00
2023-05-18T22:52:18.798Z,3.60
2023-05-18T22:56:19.962Z,3.50
2023-05-18T23:00:18.271Z,3.40
2023-05-18T23:08:19.347Z,3.90
2023-05-18T23:12:19.256Z,3.60
2023-05-18T23:16:19.453Z,3.70
2023-05-18T23:20:18.222Z,3.90
2023-05-18T23:24:18.430Z,3.50
2023-05-18T23:28:18.472Z,3.80
2023-05-18T23:32:18.467Z,4.20
2023-05-18T23:36:20.148Z,3.90
2023-05-18T23:40:18.497Z,3.60
2023-05-18T23:44:18.705Z,4.00
2023-05-18T23:48:18.614Z,3.80
2023-05-18T23:52:22.293Z,3.40
2023-05-18T23:56:18.830Z,3.70
